sensor_id;sensor_type;location;lat;lon;timestamp;pressure;altitude;pressure_sealevel;temperature;humidity
33506;BME280;19843;51.040;13.782;2023-08-01T00:01:04;99155.19;;;19.90;82.40
33506;BME280;19843;51.040;13.782;2023-08-01T00:03:32;99152.56;;;19.80;86.97
33506;BME280;19843;51.040;13.782;2023-08-01T00:05:59;99138.81;;;19.78;86.67
33506;BME280;19843;51.040;13.782;2023-08-01T00:08:27;99132.22;;;19.85;85.04
33506;BME280;19843;51.040;13.782;2023-08-01T00:10:54;99132.22;;;19.85;81.71
33506;BME280;19843;51.040;13.782;2023-08-01T00:13:22;99126.06;;;19.90;82.34
33506;BME280;19843;51.040;13.782;2023-08-01T00:15:49;99112.53;;;19.98;84.19
33506;BME280;19843;51.040;13.782;2023-08-01T00:18:34;99106.66;;;19.88;86.55
33506;BME280;19843;51.040;13.782;2023-08-01T00:21:02;99101.59;;;19.80;85.89
33506;BME280;19843;51.040;13.782;2023-08-01T00:23:31;99098.91;;;19.49;88.89
33506;BME280;19843;51.040;13.782;2023-08-01T00:25:59;99092.50;;;19.45;86.12
33506;BME280;19843;51.040;13.782;2023-08-01T00:28:27;99090.69;;;19.55;85.75
33506;BME280;19843;51.040;13.782;2023-08-01T00:31:01;99086.25;;;19.77;84.91
33506;BME280;19843;51.040;13.782;2023-08-01T00:33:30;99087.94;;;19.51;82.86
33506;BME280;19843;51.040;13.782;2023-08-01T00:35:58;99082.41;;;19.67;82.66
33506;BME280;19843;51.040;13.782;2023-08-01T00:38:26;99073.97;;;19.84;82.38
33506;BME280;19843;51.040;13.782;2023-08-01T00:40:54;99072.16;;;19.93;81.32
33506;BME280;19843;51.040;13.782;2023-08-01T00:43:21;99067.31;;;19.94;79.54
33506;BME280;19843;51.040;13.782;2023-08-01T00:45:49;99057.50;;;19.99;79.99
33506;BME280;19843;51.040;13.782;2023-08-01T00:48:17;99053.34;;;20.03;78.24
33506;BME280;19843;51.040;13.782;2023-08-01T00:50:45;99052.56;;;20.03;80.93
33506;BME280;19843;51.040;13.782;2023-08-01T00:53:14;99050.16;;;20.01;81.27
33506;BME280;19843;51.040;13.782;2023-08-01T00:55:43;99042.75;;;19.87;80.43
33506;BME280;19843;51.040;13.782;2023-08-01T00:58:10;99045.47;;;19.94;81.33
33506;BME280;19843;51.040;13.782;2023-08-01T01:00:38;99034.19;;;19.91;81.50
33506;BME280;19843;51.040;13.782;2023-08-01T01:03:06;99035.84;;;19.88;80.67
33506;BME280;19843;51.040;13.782;2023-08-01T01:05:36;99028.78;;;19.80;80.13
33506;BME280;19843;51.040;13.782;2023-08-01T01:08:04;99027.56;;;19.98;78.22
33506;BME280;19843;51.040;13.782;2023-08-01T01:10:33;99025.03;;;20.03;76.20
33506;BME280;19843;51.040;13.782;2023-08-01T01:13:01;99016.50;;;19.87;77.05
33506;BME280;19843;51.040;13.782;2023-08-01T01:15:29;99007.13;;;19.90;78.83
33506;BME280;19843;51.040;13.782;2023-08-01T01:17:57;99020.66;;;19.99;78.03
33506;BME280;19843;51.040;13.782;2023-08-01T01:22:55;99005.72;;;19.98;77.21
33506;BME280;19843;51.040;13.782;2023-08-01T01:25:24;99003.00;;;20.11;75.84
33506;BME280;19843;51.040;13.782;2023-08-01T01:27:53;99001.50;;;20.06;74.87
33506;BME280;19843;51.040;13.782;2023-08-01T01:30:22;98992.41;;;20.15;74.00
33506;BME280;19843;51.040;13.782;2023-08-01T01:32:50;99000.09;;;20.14;75.06
33506;BME280;19843;51.040;13.782;2023-08-01T01:35:17;99005.38;;;19.96;73.05
33506;BME280;19843;51.040;13.782;2023-08-01T01:37:45;98992.03;;;20.13;71.88
33506;BME280;19843;51.040;13.782;2023-08-01T01:40:14;98990.16;;;20.06;71.92
33506;BME280;19843;51.040;13.782;2023-08-01T01:42:41;98992.56;;;20.08;73.10
33506;BME280;19843;51.040;13.782;2023-08-01T01:45:09;98990.28;;;20.19;72.74
33506;BME280;19843;51.040;13.782;2023-08-01T01:47:37;98978.75;;;20.10;72.07
33506;BME280;19843;51.040;13.782;2023-08-01T01:50:05;98975.34;;;19.99;72.58
33506;BME280;19843;51.040;13.782;2023-08-01T01:52:33;98971.91;;;19.91;72.43
33506;BME280;19843;51.040;13.782;2023-08-01T01:55:00;98961.78;;;20.10;72.46
33506;BME280;19843;51.040;13.782;2023-08-01T01:57:29;98973.88;;;20.10;71.44
33506;BME280;19843;51.040;13.782;2023-08-01T01:59:57;98962.13;;;20.12;70.92
33506;BME280;19843;51.040;13.782;2023-08-01T02:02:24;98969.03;;;20.11;72.94
33506;BME280;19843;51.040;13.782;2023-08-01T02:04:52;98980.81;;;20.09;72.77
33506;BME280;19843;51.040;13.782;2023-08-01T02:07:19;98967.47;;;19.90;72.88
33506;BME280;19843;51.040;13.782;2023-08-01T02:09:47;98971.41;;;20.12;73.90
33506;BME280;19843;51.040;13.782;2023-08-01T02:12:14;98959.44;;;19.49;78.52
33506;BME280;19843;51.040;13.782;2023-08-01T02:14:43;98965.91;;;19.29;81.08
33506;BME280;19843;51.040;13.782;2023-08-01T02:17:11;98963.13;;;19.26;84.45
33506;BME280;19843;51.040;13.782;2023-08-01T02:19:39;98968.88;;;19.42;84.12
33506;BME280;19843;51.040;13.782;2023-08-01T02:22:06;98965.97;;;19.26;85.62
33506;BME280;19843;51.040;13.782;2023-08-01T02:24:34;98956.28;;;19.03;87.89
33506;BME280;19843;51.040;13.782;2023-08-01T02:27:01;98954.38;;;18.77;91.98
33506;BME280;19843;51.040;13.782;2023-08-01T02:29:29;98950.75;;;18.76;93.57
33506;BME280;19843;51.040;13.782;2023-08-01T02:31:58;98948.25;;;18.55;95.98
33506;BME280;19843;51.040;13.782;2023-08-01T02:34:25;98939.34;;;18.33;96.45
33506;BME280;19843;51.040;13.782;2023-08-01T02:36:53;98942.44;;;18.42;98.96
33506;BME280;19843;51.040;13.782;2023-08-01T02:39:20;98927.97;;;18.60;93.88
33506;BME280;19843;51.040;13.782;2023-08-01T02:41:48;98924.91;;;18.74;93.61
33506;BME280;19843;51.040;13.782;2023-08-01T02:44:16;98914.13;;;18.65;95.48
33506;BME280;19843;51.040;13.782;2023-08-01T02:46:43;98914.13;;;18.69;92.95
33506;BME280;19843;51.040;13.782;2023-08-01T02:49:12;98913.06;;;18.83;94.45
33506;BME280;19843;51.040;13.782;2023-08-01T02:51:39;98908.94;;;18.64;95.33
33506;BME280;19843;51.040;13.782;2023-08-01T02:54:07;98911.22;;;18.73;94.94
33506;BME280;19843;51.040;13.782;2023-08-01T02:56:34;98898.91;;;18.83;94.48
33506;BME280;19843;51.040;13.782;2023-08-01T02:59:07;98900.16;;;18.82;94.96
33506;BME280;19843;51.040;13.782;2023-08-01T03:01:36;98895.88;;;18.93;95.28
33506;BME280;19843;51.040;13.782;2023-08-01T03:04:04;98888.41;;;19.03;94.88
33506;BME280;19843;51.040;13.782;2023-08-01T03:06:34;98878.91;;;18.93;94.62
33506;BME280;19843;51.040;13.782;2023-08-01T03:09:01;98877.69;;;18.95;94.13
33506;BME280;19843;51.040;13.782;2023-08-01T03:11:29;98860.81;;;18.67;96.78
33506;BME280;19843;51.040;13.782;2023-08-01T03:13:56;98866.34;;;18.75;98.63
33506;BME280;19843;51.040;13.782;2023-08-01T03:16:24;98872.38;;;18.77;95.85
33506;BME280;19843;51.040;13.782;2023-08-01T03:18:52;98862.91;;;18.63;97.38
33506;BME280;19843;51.040;13.782;2023-08-01T03:21:19;98854.44;;;18.63;99.82
33506;BME280;19843;51.040;13.782;2023-08-01T03:23:48;98849.50;;;18.48;99.86
33506;BME280;19843;51.040;13.782;2023-08-01T03:26:16;98842.31;;;18.43;99.98
33506;BME280;19843;51.040;13.782;2023-08-01T03:28:44;98844.53;;;18.75;98.43
33506;BME280;19843;51.040;13.782;2023-08-01T03:31:12;98836.38;;;18.81;97.74
33506;BME280;19843;51.040;13.782;2023-08-01T03:33:39;98827.47;;;18.59;100.00
33506;BME280;19843;51.040;13.782;2023-08-01T03:36:07;98814.09;;;18.63;98.95
33506;BME280;19843;51.040;13.782;2023-08-01T03:38:34;98829.63;;;18.75;98.09
33506;BME280;19843;51.040;13.782;2023-08-01T03:41:04;98820.78;;;18.73;99.95
33506;BME280;19843;51.040;13.782;2023-08-01T03:43:31;98821.34;;;18.84;98.65
33506;BME280;19843;51.040;13.782;2023-08-01T03:45:59;98811.03;;;18.54;99.40
33506;BME280;19843;51.040;13.782;2023-08-01T03:48:27;98804.34;;;18.44;99.35
33506;BME280;19843;51.040;13.782;2023-08-01T03:50:54;98809.72;;;18.38;99.93
33506;BME280;19843;51.040;13.782;2023-08-01T03:53:22;98806.72;;;18.46;99.51
33506;BME280;19843;51.040;13.782;2023-08-01T03:55:49;98805.47;;;18.70;98.46
33506;BME280;19843;51.040;13.782;2023-08-01T03:58:18;98808.91;;;18.81;96.22
33506;BME280;19843;51.040;13.782;2023-08-01T04:00:46;98792.81;;;18.78;96.40
33506;BME280;19843;51.040;13.782;2023-08-01T04:03:13;98796.03;;;18.57;96.33
33506;BME280;19843;51.040;13.782;2023-08-01T04:05:41;98786.16;;;18.65;98.29
33506;BME280;19843;51.040;13.782;2023-08-01T04:08:09;98790.94;;;18.72;97.13
33506;BME280;19843;51.040;13.782;2023-08-01T04:10:36;98793.19;;;18.80;95.58
33506;BME280;19843;51.040;13.782;2023-08-01T04:13:04;98787.50;;;19.00;94.70
33506;BME280;19843;51.040;13.782;2023-08-01T04:15:33;98775.72;;;18.85;96.36
33506;BME280;19843;51.040;13.782;2023-08-01T04:18:00;98778.59;;;18.82;94.63
33506;BME280;19843;51.040;13.782;2023-08-01T04:20:28;98773.75;;;18.82;95.52
33506;BME280;19843;51.040;13.782;2023-08-01T04:22:55;98768.00;;;18.66;95.75
33506;BME280;19843;51.040;13.782;2023-08-01T04:25:23;98765.47;;;18.91;93.89
33506;BME280;19843;51.040;13.782;2023-08-01T04:27:53;98773.97;;;18.91;93.66
33506;BME280;19843;51.040;13.782;2023-08-01T04:30:20;98754.16;;;18.91;94.69
33506;BME280;19843;51.040;13.782;2023-08-01T04:32:49;98751.16;;;18.99;93.36
33506;BME280;19843;51.040;13.782;2023-08-01T04:35:17;98763.00;;;18.93;93.40
33506;BME280;19843;51.040;13.782;2023-08-01T04:37:44;98755.25;;;18.98;93.85
33506;BME280;19843;51.040;13.782;2023-08-01T04:40:12;98754.66;;;19.06;92.99
33506;BME280;19843;51.040;13.782;2023-08-01T04:42:39;98750.44;;;19.14;93.08
33506;BME280;19843;51.040;13.782;2023-08-01T04:45:07;98744.91;;;18.91;94.81
33506;BME280;19843;51.040;13.782;2023-08-01T04:47:35;98736.03;;;19.09;94.02
33506;BME280;19843;51.040;13.782;2023-08-01T04:50:06;98736.84;;;19.26;92.65
33506;BME280;19843;51.040;13.782;2023-08-01T04:52:33;98740.03;;;19.44;91.57
33506;BME280;19843;51.040;13.782;2023-08-01T04:55:01;98727.41;;;19.32;93.02
33506;BME280;19843;51.040;13.782;2023-08-01T04:57:30;98726.31;;;19.26;93.07
33506;BME280;19843;51.040;13.782;2023-08-01T04:59:57;98733.75;;;19.36;92.47
33506;BME280;19843;51.040;13.782;2023-08-01T05:02:26;98725.91;;;19.28;92.83
33506;BME280;19843;51.040;13.782;2023-08-01T05:04:53;98719.06;;;19.09;94.17
33506;BME280;19843;51.040;13.782;2023-08-01T05:07:22;98716.66;;;19.07;95.10
33506;BME280;19843;51.040;13.782;2023-08-01T05:09:50;98710.78;;;18.98;97.26
33506;BME280;19843;51.040;13.782;2023-08-01T05:12:18;98712.56;;;19.08;96.35
33506;BME280;19843;51.040;13.782;2023-08-01T05:14:45;98715.06;;;19.23;96.41
33506;BME280;19843;51.040;13.782;2023-08-01T05:17:13;98702.91;;;19.42;94.95
33506;BME280;19843;51.040;13.782;2023-08-01T05:19:40;98700.44;;;19.28;97.32
33506;BME280;19843;51.040;13.782;2023-08-01T05:22:08;98690.72;;;19.29;96.32
33506;BME280;19843;51.040;13.782;2023-08-01T05:24:37;98691.56;;;19.26;96.49
33506;BME280;19843;51.040;13.782;2023-08-01T05:27:05;98702.03;;;19.29;97.53
33506;BME280;19843;51.040;13.782;2023-08-01T05:29:33;98684.88;;;19.19;97.83
33506;BME280;19843;51.040;13.782;2023-08-01T05:32:00;98688.41;;;19.40;97.91
33506;BME280;19843;51.040;13.782;2023-08-01T05:34:28;98680.94;;;18.97;100.00
33506;BME280;19843;51.040;13.782;2023-08-01T05:36:56;98685.31;;;19.18;100.00
33506;BME280;19843;51.040;13.782;2023-08-01T05:39:23;98684.16;;;19.15;100.00
33506;BME280;19843;51.040;13.782;2023-08-01T05:41:52;98687.94;;;19.25;98.94
33506;BME280;19843;51.040;13.782;2023-08-01T05:44:20;98679.81;;;19.27;100.00
33506;BME280;19843;51.040;13.782;2023-08-01T05:46:47;98672.84;;;19.48;100.00
33506;BME280;19843;51.040;13.782;2023-08-01T05:49:15;98674.69;;;19.22;100.00
33506;BME280;19843;51.040;13.782;2023-08-01T05:51:44;98664.34;;;19.48;99.27
33506;BME280;19843;51.040;13.782;2023-08-01T05:54:13;98660.28;;;19.49;98.23
33506;BME280;19843;51.040;13.782;2023-08-01T05:56:42;98665.50;;;19.34;99.01
33506;BME280;19843;51.040;13.782;2023-08-01T05:59:11;98665.22;;;19.12;100.00
33506;BME280;19843;51.040;13.782;2023-08-01T06:01:39;98653.38;;;19.01;100.00
33506;BME280;19843;51.040;13.782;2023-08-01T06:04:07;98659.94;;;19.31;99.19
33506;BME280;19843;51.040;13.782;2023-08-01T06:06:34;98656.91;;;19.22;100.00
33506;BME280;19843;51.040;13.782;2023-08-01T06:09:02;98640.75;;;19.22;99.84
33506;BME280;19843;51.040;13.782;2023-08-01T06:11:29;98648.63;;;19.31;99.40
33506;BME280;19843;51.040;13.782;2023-08-01T06:13:57;98653.47;;;19.30;98.31
33506;BME280;19843;51.040;13.782;2023-08-01T06:16:26;98644.72;;;19.25;99.92
33506;BME280;19843;51.040;13.782;2023-08-01T06:18:54;98641.88;;;19.57;98.46
33506;BME280;19843;51.040;13.782;2023-08-01T06:21:21;98625.16;;;19.79;96.62
33506;BME280;19843;51.040;13.782;2023-08-01T06:23:49;98630.81;;;19.79;95.47
33506;BME280;19843;51.040;13.782;2023-08-01T06:26:16;98625.31;;;19.88;95.30
33506;BME280;19843;51.040;13.782;2023-08-01T06:28:44;98632.38;;;19.97;95.58
33506;BME280;19843;51.040;13.782;2023-08-01T06:31:11;98632.81;;;19.95;94.86
33506;BME280;19843;51.040;13.782;2023-08-01T06:33:40;98636.19;;;19.90;95.53
33506;BME280;19843;51.040;13.782;2023-08-01T06:36:08;98629.59;;;19.80;97.88
33506;BME280;19843;51.040;13.782;2023-08-01T06:38:35;98629.25;;;19.29;100.00
33506;BME280;19843;51.040;13.782;2023-08-01T06:41:03;98631.00;;;19.56;100.00
33506;BME280;19843;51.040;13.782;2023-08-01T06:43:30;98637.22;;;19.02;100.00
33506;BME280;19843;51.040;13.782;2023-08-01T06:45:58;98639.31;;;18.98;100.00
33506;BME280;19843;51.040;13.782;2023-08-01T06:48:26;98634.56;;;19.27;99.70
33506;BME280;19843;51.040;13.782;2023-08-01T06:50:55;98645.69;;;19.02;100.00
33506;BME280;19843;51.040;13.782;2023-08-01T06:53:23;98644.53;;;19.32;100.00
33506;BME280;19843;51.040;13.782;2023-08-01T06:55:50;98641.19;;;19.21;100.00
33506;BME280;19843;51.040;13.782;2023-08-01T06:58:19;98627.03;;;19.53;100.00
33506;BME280;19843;51.040;13.782;2023-08-01T07:00:47;98629.59;;;19.64;97.78
33506;BME280;19843;51.040;13.782;2023-08-01T07:03:14;98634.78;;;19.82;96.70
33506;BME280;19843;51.040;13.782;2023-08-01T07:05:42;98630.94;;;20.05;96.12
33506;BME280;19843;51.040;13.782;2023-08-01T07:08:11;98637.88;;;20.16;94.67
33506;BME280;19843;51.040;13.782;2023-08-01T07:10:39;98630.91;;;20.34;94.72
33506;BME280;19843;51.040;13.782;2023-08-01T07:13:06;98626.81;;;20.35;92.91
33506;BME280;19843;51.040;13.782;2023-08-01T07:15:34;98631.72;;;20.05;98.68
33506;BME280;19843;51.040;13.782;2023-08-01T07:18:03;98636.47;;;19.79;96.88
33506;BME280;19843;51.040;13.782;2023-08-01T07:20:31;98625.69;;;20.03;99.26
33506;BME280;19843;51.040;13.782;2023-08-01T07:22:59;98625.94;;;20.38;94.54
33506;BME280;19843;51.040;13.782;2023-08-01T07:25:28;98625.34;;;20.30;91.68
33506;BME280;19843;51.040;13.782;2023-08-01T07:27:55;98618.13;;;20.42;93.46
33506;BME280;19843;51.040;13.782;2023-08-01T07:30:24;98629.53;;;20.80;92.79
33506;BME280;19843;51.040;13.782;2023-08-01T07:32:51;98629.84;;;21.08;90.49
33506;BME280;19843;51.040;13.782;2023-08-01T07:35:21;98623.41;;;20.82;89.77
33506;BME280;19843;51.040;13.782;2023-08-01T07:37:48;98626.47;;;21.00;90.93
33506;BME280;19843;51.040;13.782;2023-08-01T07:40:16;98616.59;;;21.05;87.50
33506;BME280;19843;51.040;13.782;2023-08-01T07:42:45;98625.47;;;20.39;95.48
33506;BME280;19843;51.040;13.782;2023-08-01T07:45:13;98626.66;;;20.55;90.91
33506;BME280;19843;51.040;13.782;2023-08-01T07:47:41;98618.63;;;20.53;89.20
33506;BME280;19843;51.040;13.782;2023-08-01T07:50:09;98624.84;;;20.48;91.79
33506;BME280;19843;51.040;13.782;2023-08-01T07:52:37;98621.59;;;20.33;91.29
33506;BME280;19843;51.040;13.782;2023-08-01T07:55:05;98623.72;;;20.58;88.37
33506;BME280;19843;51.040;13.782;2023-08-01T07:57:33;98619.75;;;20.14;88.69
33506;BME280;19843;51.040;13.782;2023-08-01T08:00:03;98611.50;;;20.61;88.48
33506;BME280;19843;51.040;13.782;2023-08-01T08:02:30;98623.97;;;20.89;86.30
33506;BME280;19843;51.040;13.782;2023-08-01T08:04:58;98617.13;;;21.12;84.59
33506;BME280;19843;51.040;13.782;2023-08-01T08:07:25;98624.47;;;21.61;81.65
33506;BME280;19843;51.040;13.782;2023-08-01T08:09:53;98617.91;;;21.26;83.20
33506;BME280;19843;51.040;13.782;2023-08-01T08:12:22;98613.16;;;21.35;80.64
33506;BME280;19843;51.040;13.782;2023-08-01T08:14:49;98622.34;;;21.87;78.48
33506;BME280;19843;51.040;13.782;2023-08-01T08:17:18;98610.97;;;21.87;79.75
33506;BME280;19843;51.040;13.782;2023-08-01T08:19:46;98625.44;;;22.14;77.70
33506;BME280;19843;51.040;13.782;2023-08-01T08:22:14;98606.78;;;22.35;77.51
33506;BME280;19843;51.040;13.782;2023-08-01T08:24:42;98609.22;;;22.46;77.02
33506;BME280;19843;51.040;13.782;2023-08-01T08:27:10;98605.47;;;22.27;77.81
33506;BME280;19843;51.040;13.782;2023-08-01T08:29:37;98619.75;;;22.67;74.65
33506;BME280;19843;51.040;13.782;2023-08-01T08:32:06;98596.69;;;22.65;73.30
33506;BME280;19843;51.040;13.782;2023-08-01T08:34:35;98595.78;;;22.78;73.48
33506;BME280;19843;51.040;13.782;2023-08-01T08:37:05;98585.38;;;23.15;73.40
33506;BME280;19843;51.040;13.782;2023-08-01T08:39:32;98596.91;;;23.20;71.88
33506;BME280;19843;51.040;13.782;2023-08-01T08:42:00;98593.38;;;23.57;70.19
33506;BME280;19843;51.040;13.782;2023-08-01T08:44:29;98592.38;;;23.32;72.19
33506;BME280;19843;51.040;13.782;2023-08-01T08:47:03;98600.72;;;22.86;71.59
33506;BME280;19843;51.040;13.782;2023-08-01T08:49:31;98596.03;;;22.61;72.10
33506;BME280;19843;51.040;13.782;2023-08-01T08:52:05;98592.28;;;22.73;69.39
33506;BME280;19843;51.040;13.782;2023-08-01T08:54:33;98608.94;;;22.09;73.35
33506;BME280;19843;51.040;13.782;2023-08-01T08:57:05;98601.16;;;22.01;74.03
33506;BME280;19843;51.040;13.782;2023-08-01T08:59:33;98596.56;;;21.81;73.53
33506;BME280;19843;51.040;13.782;2023-08-01T09:02:01;98606.59;;;21.38;75.55
33506;BME280;19843;51.040;13.782;2023-08-01T09:04:30;98597.09;;;22.23;73.78
33506;BME280;19843;51.040;13.782;2023-08-01T09:07:01;98600.91;;;22.08;74.72
33506;BME280;19843;51.040;13.782;2023-08-01T09:09:31;98581.38;;;21.75;74.15
33506;BME280;19843;51.040;13.782;2023-08-01T09:12:00;98582.53;;;22.21;73.10
33506;BME280;19843;51.040;13.782;2023-08-01T09:14:27;98580.50;;;22.53;72.43
33506;BME280;19843;51.040;13.782;2023-08-01T09:17:05;98571.69;;;22.29;70.23
33506;BME280;19843;51.040;13.782;2023-08-01T09:19:36;98562.38;;;22.60;70.35
33506;BME280;19843;51.040;13.782;2023-08-01T09:22:10;98564.94;;;21.92;73.56
33506;BME280;19843;51.040;13.782;2023-08-01T09:24:39;98563.28;;;22.47;72.19
33506;BME280;19843;51.040;13.782;2023-08-01T09:27:20;98565.59;;;21.96;73.61
33506;BME280;19843;51.040;13.782;2023-08-01T09:29:49;98565.03;;;22.23;72.42
33506;BME280;19843;51.040;13.782;2023-08-01T09:32:18;98563.03;;;21.32;77.08
33506;BME280;19843;51.040;13.782;2023-08-01T09:34:46;98560.28;;;21.16;77.46
33506;BME280;19843;51.040;13.782;2023-08-01T09:37:15;98539.28;;;21.26;76.11
33506;BME280;19843;51.040;13.782;2023-08-01T09:39:44;98506.00;;;21.39;76.08
33506;BME280;19843;51.040;13.782;2023-08-01T09:42:13;98503.72;;;21.47;75.42
33506;BME280;19843;51.040;13.782;2023-08-01T09:44:45;98524.94;;;20.95;75.64
33506;BME280;19843;51.040;13.782;2023-08-01T09:47:15;98523.78;;;21.05;74.74
33506;BME280;19843;51.040;13.782;2023-08-01T09:49:49;98529.25;;;21.69;72.37
33506;BME280;19843;51.040;13.782;2023-08-01T09:52:26;98531.56;;;21.83;71.03
33506;BME280;19843;51.040;13.782;2023-08-01T09:54:55;98530.03;;;21.47;72.90
33506;BME280;19843;51.040;13.782;2023-08-01T09:57:26;98525.66;;;21.90;71.84
33506;BME280;19843;51.040;13.782;2023-08-01T09:59:56;98517.78;;;22.47;70.73
33506;BME280;19843;51.040;13.782;2023-08-01T10:02:24;98514.38;;;22.62;68.38
33506;BME280;19843;51.040;13.782;2023-08-01T10:04:54;98520.00;;;22.21;67.71
33506;BME280;19843;51.040;13.782;2023-08-01T10:07:26;98526.97;;;22.52;67.61
33506;BME280;19843;51.040;13.782;2023-08-01T10:09:57;98530.69;;;22.39;68.02
33506;BME280;19843;51.040;13.782;2023-08-01T10:12:26;98525.56;;;22.56;65.96
33506;BME280;19843;51.040;13.782;2023-08-01T10:14:54;98537.28;;;22.27;66.72
33506;BME280;19843;51.040;13.782;2023-08-01T10:17:23;98537.34;;;21.70;67.20
33506;BME280;19843;51.040;13.782;2023-08-01T10:19:53;98544.47;;;21.97;67.79
33506;BME280;19843;51.040;13.782;2023-08-01T10:22:24;98550.03;;;22.22;65.69
33506;BME280;19843;51.040;13.782;2023-08-01T10:24:53;98552.13;;;22.62;65.68
33506;BME280;19843;51.040;13.782;2023-08-01T10:27:23;98541.97;;;22.92;63.79
33506;BME280;19843;51.040;13.782;2023-08-01T10:29:57;98549.06;;;22.88;64.42
33506;BME280;19843;51.040;13.782;2023-08-01T10:32:30;98567.22;;;22.50;63.22
33506;BME280;19843;51.040;13.782;2023-08-01T10:34:59;98572.50;;;22.92;63.20
33506;BME280;19843;51.040;13.782;2023-08-01T10:37:27;98576.53;;;22.82;62.79
33506;BME280;19843;51.040;13.782;2023-08-01T10:39:57;98598.25;;;23.47;62.74
33506;BME280;19843;51.040;13.782;2023-08-01T10:42:37;98586.25;;;22.93;62.36
33506;BME280;19843;51.040;13.782;2023-08-01T10:45:08;98595.91;;;22.65;62.37
33506;BME280;19843;51.040;13.782;2023-08-01T10:47:46;98602.56;;;23.02;61.40
33506;BME280;19843;51.040;13.782;2023-08-01T10:50:16;98583.53;;;23.39;60.89
33506;BME280;19843;51.040;13.782;2023-08-01T10:52:45;98577.41;;;24.05;58.00
33506;BME280;19843;51.040;13.782;2023-08-01T10:55:14;98563.41;;;24.44;58.20
33506;BME280;19843;51.040;13.782;2023-08-01T10:57:49;98556.16;;;24.15;57.55
33506;BME280;19843;51.040;13.782;2023-08-01T11:00:17;98556.53;;;24.69;56.50
33506;BME280;19843;51.040;13.782;2023-08-01T11:02:49;98562.34;;;24.23;56.73
33506;BME280;19843;51.040;13.782;2023-08-01T11:05:17;98555.25;;;23.91;58.33
33506;BME280;19843;51.040;13.782;2023-08-01T11:07:53;98547.94;;;24.26;56.42
33506;BME280;19843;51.040;13.782;2023-08-01T11:10:22;98563.28;;;24.20;56.84
33506;BME280;19843;51.040;13.782;2023-08-01T11:12:52;98560.28;;;23.41;58.49
33506;BME280;19843;51.040;13.782;2023-08-01T11:15:20;98550.44;;;24.34;58.22
33506;BME280;19843;51.040;13.782;2023-08-01T11:17:49;98552.22;;;24.73;56.98
33506;BME280;19843;51.040;13.782;2023-08-01T11:20:19;98542.03;;;24.82;56.06
33506;BME280;19843;51.040;13.782;2023-08-01T11:22:52;98551.84;;;25.47;54.61
33506;BME280;19843;51.040;13.782;2023-08-01T11:25:32;98561.06;;;24.85;53.65
33506;BME280;19843;51.040;13.782;2023-08-01T11:28:09;98565.69;;;24.12;55.64
33506;BME280;19843;51.040;13.782;2023-08-01T11:30:38;98567.69;;;24.91;54.98
33506;BME280;19843;51.040;13.782;2023-08-01T11:33:14;98567.41;;;25.22;53.36
33506;BME280;19843;51.040;13.782;2023-08-01T11:35:44;98569.66;;;25.18;53.34
33506;BME280;19843;51.040;13.782;2023-08-01T11:38:11;98564.88;;;24.82;54.08
33506;BME280;19843;51.040;13.782;2023-08-01T11:40:41;98583.09;;;24.14;56.79
33506;BME280;19843;51.040;13.782;2023-08-01T11:43:10;98571.59;;;24.69;54.96
33506;BME280;19843;51.040;13.782;2023-08-01T11:45:48;98575.25;;;25.60;53.44
33506;BME280;19843;51.040;13.782;2023-08-01T11:48:15;98588.47;;;25.48;52.98
33506;BME280;19843;51.040;13.782;2023-08-01T11:50:43;98587.59;;;24.67;54.17
33506;BME280;19843;51.040;13.782;2023-08-01T11:53:18;98563.59;;;24.31;56.77
33506;BME280;19843;51.040;13.782;2023-08-01T11:55:47;98573.75;;;24.23;57.22
33506;BME280;19843;51.040;13.782;2023-08-01T11:58:28;98568.81;;;24.42;56.54
33506;BME280;19843;51.040;13.782;2023-08-01T12:01:02;98556.31;;;24.39;56.07
33506;BME280;19843;51.040;13.782;2023-08-01T12:03:30;98558.25;;;23.60;57.94
33506;BME280;19843;51.040;13.782;2023-08-01T12:06:04;98580.50;;;23.34;59.78
33506;BME280;19843;51.040;13.782;2023-08-01T12:08:34;98583.34;;;22.84;61.37
33506;BME280;19843;51.040;13.782;2023-08-01T12:11:01;98587.88;;;23.04;60.99
33506;BME280;19843;51.040;13.782;2023-08-01T12:13:30;98586.63;;;22.83;61.82
33506;BME280;19843;51.040;13.782;2023-08-01T12:15:58;98587.41;;;23.05;62.03
33506;BME280;19843;51.040;13.782;2023-08-01T12:18:27;98610.22;;;22.08;65.97
33506;BME280;19843;51.040;13.782;2023-08-01T12:21:15;98644.81;;;20.83;72.75
33506;BME280;19843;51.040;13.782;2023-08-01T12:23:44;98651.47;;;19.47;84.71
33506;BME280;19843;51.040;13.782;2023-08-01T12:26:12;98628.91;;;19.43;90.38
33506;BME280;19843;51.040;13.782;2023-08-01T12:28:41;98638.25;;;19.89;89.66
33506;BME280;19843;51.040;13.782;2023-08-01T12:31:08;98641.38;;;19.62;90.08
33506;BME280;19843;51.040;13.782;2023-08-01T12:33:36;98663.41;;;18.30;100.00
33506;BME280;19843;51.040;13.782;2023-08-01T12:36:04;98661.22;;;18.57;100.00
33506;BME280;19843;51.040;13.782;2023-08-01T12:38:31;98666.63;;;18.68;100.00
33506;BME280;19843;51.040;13.782;2023-08-01T12:41:00;98678.06;;;18.61;100.00
33506;BME280;19843;51.040;13.782;2023-08-01T12:43:29;98697.34;;;18.86;100.00
33506;BME280;19843;51.040;13.782;2023-08-01T12:45:58;98706.03;;;17.96;100.00
33506;BME280;19843;51.040;13.782;2023-08-01T12:48:26;98710.09;;;18.54;100.00
33506;BME280;19843;51.040;13.782;2023-08-01T12:50:54;98703.47;;;19.01;100.00
33506;BME280;19843;51.040;13.782;2023-08-01T12:53:22;98703.09;;;18.99;100.00
33506;BME280;19843;51.040;13.782;2023-08-01T12:55:51;98711.56;;;18.82;100.00
33506;BME280;19843;51.040;13.782;2023-08-01T12:58:19;98712.56;;;18.92;100.00
33506;BME280;19843;51.040;13.782;2023-08-01T13:00:48;98724.25;;;18.34;100.00